createdAt,value
2022-08-06T00:00:03.503Z,23.87
2022-08-06T00:02:28.659Z,23.86
2022-08-06T00:04:59.397Z,23.85
2022-08-06T00:07:26.584Z,23.82
2022-08-06T00:10:00.626Z,23.78
2022-08-06T00:12:35.339Z,23.82
2022-08-06T00:15:13.583Z,23.80
2022-08-06T00:17:44.306Z,23.78
2022-08-06T00:20:25.795Z,23.76
2022-08-06T00:23:00.107Z,23.74
2022-08-06T00:25:28.300Z,23.69
2022-08-06T00:27:55.109Z,23.72
2022-08-06T00:30:22.664Z,23.66
2022-08-06T00:32:52.333Z,23.68
2022-08-06T00:35:21.738Z,23.64
2022-08-06T00:37:56.598Z,23.62
2022-08-06T00:40:28.758Z,23.62
2022-08-06T00:42:57.285Z,23.61
2022-08-06T00:45:25.407Z,23.59
2022-08-06T00:48:03.296Z,23.55
2022-08-06T00:50:34.007Z,23.55
2022-08-06T00:53:03.157Z,23.58
2022-08-06T00:55:31.922Z,23.57
2022-08-06T00:58:02.558Z,23.55
2022-08-06T01:00:31.014Z,23.57
2022-08-06T01:02:57.942Z,23.55
2022-08-06T01:06:04.682Z,23.56
2022-08-06T01:08:12.378Z,23.55
2022-08-06T01:10:41.887Z,23.53
2022-08-06T01:13:25.198Z,23.54
2022-08-06T01:16:29.354Z,23.56
2022-08-06T01:19:21.212Z,23.57
2022-08-06T01:22:29.761Z,23.58
2022-08-06T01:25:14.004Z,23.58
2022-08-06T01:27:48.364Z,23.61
2022-08-06T01:30:20.336Z,23.59
2022-08-06T01:33:15.917Z,23.63
2022-08-06T01:35:55.414Z,23.64
2022-08-06T01:38:35.905Z,23.63
2022-08-06T01:41:06.440Z,23.62
2022-08-06T01:44:07.773Z,23.67
2022-08-06T01:46:23.701Z,23.63
2022-08-06T01:48:51.889Z,23.67
2022-08-06T01:52:13.869Z,23.69
2022-08-06T01:54:11.600Z,23.68
2022-08-06T01:56:57.291Z,23.66
2022-08-06T01:59:33.527Z,23.65
2022-08-06T02:02:05.342Z,23.66
2022-08-06T02:04:38.869Z,23.66
2022-08-06T02:08:34.231Z,23.65
2022-08-06T02:09:58.128Z,23.68
2022-08-06T02:12:26.966Z,23.65
2022-08-06T02:15:04.843Z,23.66
2022-08-06T02:17:54.165Z,23.66
2022-08-06T02:20:37.535Z,23.64
2022-08-06T02:23:08.671Z,23.64
2022-08-06T02:25:41.418Z,23.63
2022-08-06T02:28:09.857Z,23.61
2022-08-06T02:30:42.578Z,23.59
2022-08-06T02:36:57.841Z,23.58
2022-08-06T02:39:41.281Z,23.53
2022-08-06T02:42:32.060Z,23.52
2022-08-06T02:45:03.879Z,23.48
2022-08-06T02:48:01.066Z,23.51
2022-08-06T02:50:36.472Z,23.49
2022-08-06T02:53:24.228Z,23.47
2022-08-06T02:55:57.283Z,23.50
2022-08-06T02:58:39.428Z,23.43
2022-08-06T03:01:11.068Z,23.50
2022-08-06T03:03:54.847Z,23.50
2022-08-06T03:06:30.661Z,23.47
2022-08-06T03:08:58.911Z,23.44
2022-08-06T03:11:31.172Z,23.44
2022-08-06T03:14:02.269Z,23.41
2022-08-06T03:16:36.269Z,23.41
2022-08-06T03:19:55.369Z,23.40
2022-08-06T03:21:57.253Z,23.41
2022-08-06T03:24:26.151Z,23.39
2022-08-06T03:26:56.762Z,23.39
2022-08-06T03:29:25.324Z,23.42
2022-08-06T03:31:58.667Z,23.41
2022-08-06T03:34:27.683Z,23.39
2022-08-06T03:36:57.003Z,23.39
2022-08-06T03:39:25.926Z,23.38
2022-08-06T03:42:08.419Z,23.38
2022-08-06T03:44:36.390Z,23.36
2022-08-06T03:47:15.349Z,23.37
2022-08-06T03:50:04.613Z,23.35
2022-08-06T03:52:38.998Z,23.35
2022-08-06T03:55:15.100Z,23.32
2022-08-06T03:57:47.222Z,23.30
2022-08-06T04:00:28.266Z,23.29
2022-08-06T04:02:57.297Z,23.28
2022-08-06T04:05:29.665Z,23.24
2022-08-06T04:07:59.477Z,23.27
2022-08-06T04:10:35.306Z,23.25
2022-08-06T04:14:03.184Z,23.26
2022-08-06T04:15:57.129Z,23.24
2022-08-06T04:18:30.204Z,23.21
2022-08-06T04:21:21.336Z,23.22
2022-08-06T04:23:53.477Z,23.19
2022-08-06T04:26:25.530Z,23.17
2022-08-06T04:28:58.157Z,23.18
2022-08-06T04:32:11.481Z,23.17
2022-08-06T04:34:19.065Z,23.17
2022-08-06T04:36:53.794Z,23.13
2022-08-06T04:39:25.347Z,23.13
2022-08-06T04:42:06.204Z,23.17
2022-08-06T04:44:34.117Z,23.17
2022-08-06T04:47:02.026Z,23.14
2022-08-06T04:50:01.493Z,23.16
2022-08-06T04:52:34.340Z,23.15
2022-08-06T04:55:24.262Z,23.13
2022-08-06T04:57:57.271Z,23.06
2022-08-06T05:00:33.597Z,23.12
2022-08-06T05:03:18.041Z,23.12
2022-08-06T05:06:23.570Z,23.11
2022-08-06T05:08:55.948Z,23.09
2022-08-06T05:11:27.318Z,23.04
2022-08-06T05:14:02.676Z,23.06
2022-08-06T05:16:39.408Z,23.03
2022-08-06T05:19:36.239Z,23.01
2022-08-06T05:22:11.667Z,22.97
2022-08-06T05:25:02.293Z,22.95
2022-08-06T05:27:40.123Z,22.98
2022-08-06T05:30:15.300Z,23.02
2022-08-06T05:32:47.000Z,23.08
2022-08-06T05:35:20.242Z,23.12
2022-08-06T05:38:01.676Z,23.16
2022-08-06T05:40:35.101Z,23.16
2022-08-06T05:43:21.227Z,23.15
2022-08-06T05:45:52.332Z,23.20
2022-08-06T05:48:28.935Z,23.22
2022-08-06T05:51:06.913Z,23.24
2022-08-06T05:54:03.473Z,23.27
2022-08-06T05:56:39.128Z,23.29
2022-08-06T05:59:38.387Z,23.29
2022-08-06T06:02:24.970Z,23.29
2022-08-06T06:06:03.559Z,23.32
2022-08-06T06:08:07.790Z,23.30
2022-08-06T06:10:26.902Z,23.31
2022-08-06T06:12:55.572Z,23.27
2022-08-06T06:16:00.211Z,23.30
2022-08-06T06:18:33.869Z,23.33
2022-08-06T06:21:36.226Z,23.38
2022-08-06T06:24:19.900Z,23.42
2022-08-06T06:26:49.686Z,23.45
2022-08-06T06:30:06.821Z,23.47
2022-08-06T06:32:50.465Z,23.49
2022-08-06T06:35:33.885Z,23.53
2022-08-06T06:38:36.946Z,23.52
2022-08-06T06:41:20.583Z,23.55
2022-08-06T06:43:57.237Z,23.57
2022-08-06T06:46:49.434Z,23.58
2022-08-06T06:49:59.568Z,23.59
2022-08-06T06:52:33.044Z,23.59
2022-08-06T06:55:43.112Z,23.64
2022-08-06T06:58:47.248Z,23.70
2022-08-06T07:01:29.194Z,23.76
2022-08-06T07:03:57.898Z,23.80
2022-08-06T07:06:30.795Z,23.86
2022-08-06T07:09:00.519Z,23.93
2022-08-06T07:12:02.153Z,23.98
2022-08-06T07:14:34.220Z,24.06
2022-08-06T07:17:44.888Z,24.09
2022-08-06T07:19:51.502Z,24.13
2022-08-06T07:22:23.381Z,24.18
2022-08-06T07:24:54.499Z,24.25
2022-08-06T07:27:42.892Z,24.27
2022-08-06T07:30:16.847Z,24.33
2022-08-06T07:32:49.079Z,24.37
2022-08-06T07:35:21.095Z,24.41
2022-08-06T07:38:01.165Z,24.44
2022-08-06T07:40:38.564Z,24.43
2022-08-06T07:43:25.317Z,24.49
2022-08-06T07:46:03.881Z,24.51
2022-08-06T07:48:39.943Z,24.56
2022-08-06T07:51:07.919Z,24.55
2022-08-06T07:53:53.131Z,24.59
2022-08-06T07:56:26.064Z,24.65
2022-08-06T07:58:57.507Z,24.63
2022-08-06T08:01:28.539Z,24.64
2022-08-06T08:04:34.883Z,24.62
2022-08-06T08:07:04.825Z,24.61
2022-08-06T08:10:01.534Z,24.63
2022-08-06T08:12:29.359Z,24.69
2022-08-06T08:15:04.459Z,24.72
2022-08-06T08:17:34.951Z,24.76
2022-08-06T08:20:15.342Z,24.75
2022-08-06T08:22:48.198Z,24.77
2022-08-06T08:25:22.073Z,24.74
2022-08-06T08:28:11.798Z,24.74
2022-08-06T08:30:44.321Z,24.76
2022-08-06T08:33:15.361Z,24.76
2022-08-06T08:35:50.381Z,24.76
2022-08-06T08:38:32.655Z,24.80
2022-08-06T08:41:16.324Z,24.78
2022-08-06T08:44:00.518Z,24.79
2022-08-06T08:46:38.093Z,24.80
2022-08-06T08:49:21.433Z,24.78
2022-08-06T08:51:50.163Z,24.80
2022-08-06T08:54:21.696Z,24.82
2022-08-06T08:57:08.619Z,24.85
2022-08-06T08:59:59.980Z,24.85
2022-08-06T09:02:26.271Z,24.92
2022-08-06T09:04:54.394Z,24.93
2022-08-06T09:07:36.839Z,24.94
2022-08-06T09:10:06.466Z,24.94
2022-08-06T09:12:45.304Z,24.95
2022-08-06T09:15:17.369Z,24.99
2022-08-06T09:18:25.231Z,25.00
2022-08-06T09:20:35.305Z,25.05
2022-08-06T09:23:02.678Z,25.08
2022-08-06T09:25:57.862Z,25.07
2022-08-06T09:28:31.723Z,25.10
2022-08-06T09:31:30.497Z,25.11
2022-08-06T09:34:28.583Z,25.11
2022-08-06T09:36:57.362Z,25.09
2022-08-06T09:40:00.378Z,25.09
2022-08-06T09:42:42.874Z,25.09
2022-08-06T09:49:45.724Z,25.07
2022-08-06T09:51:51.205Z,25.00
2022-08-06T09:54:24.765Z,25.02
2022-08-06T09:57:00.864Z,24.90
2022-08-06T09:59:27.553Z,24.95
2022-08-06T10:02:00.165Z,24.92
2022-08-06T10:04:36.679Z,24.88
2022-08-06T10:07:08.338Z,24.85
2022-08-06T10:09:41.580Z,24.89
2022-08-06T10:12:26.370Z,24.86
2022-08-06T10:14:56.287Z,24.88
2022-08-06T10:17:25.248Z,24.92
2022-08-06T10:20:09.665Z,24.92
2022-08-06T10:22:38.364Z,24.93
2022-08-06T10:25:12.859Z,24.94
2022-08-06T10:27:41.743Z,24.94
2022-08-06T10:30:11.093Z,24.92
2022-08-06T10:32:59.326Z,24.94
2022-08-06T10:35:27.613Z,24.85
2022-08-06T10:38:13.123Z,24.92
2022-08-06T10:40:58.483Z,24.93
2022-08-06T10:43:30.182Z,24.91
2022-08-06T10:46:06.484Z,24.94
2022-08-06T10:50:20.395Z,24.93
2022-08-06T10:51:56.741Z,24.96
2022-08-06T10:54:19.814Z,24.97
2022-08-06T10:56:50.023Z,24.93
2022-08-06T10:59:18.896Z,24.97
2022-08-06T11:02:16.023Z,24.98
2022-08-06T11:04:47.289Z,24.97
2022-08-06T11:08:09.393Z,24.97
2022-08-06T11:10:54.526Z,24.95
2022-08-06T11:13:36.957Z,24.94
2022-08-06T11:16:30.953Z,24.91
2022-08-06T11:19:10.489Z,24.86
2022-08-06T11:22:01.062Z,24.89
2022-08-06T11:24:30.105Z,24.88
2022-08-06T11:27:11.073Z,24.89
2022-08-06T11:30:13.878Z,24.89
2022-08-06T11:32:55.180Z,24.86
2022-08-06T11:35:33.757Z,24.92
2022-08-06T11:38:34.511Z,24.92
2022-08-06T11:41:06.360Z,24.91
2022-08-06T11:43:58.236Z,24.88
2022-08-06T11:46:47.762Z,24.84
2022-08-06T11:49:43.775Z,24.86
2022-08-06T11:52:37.695Z,24.86
2022-08-06T11:55:12.590Z,24.85
2022-08-06T11:57:50.824Z,24.84
2022-08-06T12:00:22.870Z,24.80
2022-08-06T12:02:54.675Z,24.83
2022-08-06T12:05:26.815Z,24.83
2022-08-06T12:08:22.385Z,24.81
2022-08-06T12:11:24.825Z,24.80
2022-08-06T12:13:57.648Z,24.82
2022-08-06T12:16:41.188Z,24.82
2022-08-06T12:19:15.787Z,24.81
2022-08-06T12:21:48.824Z,24.80
2022-08-06T12:24:23.017Z,24.83
2022-08-06T12:26:50.915Z,24.84
2022-08-06T12:29:18.249Z,24.83
2022-08-06T12:32:03.579Z,24.85
2022-08-06T12:34:31.183Z,24.86
2022-08-06T12:37:00.234Z,24.86
2022-08-06T12:39:48.089Z,24.84
2022-08-06T12:42:54.064Z,24.83
2022-08-06T12:45:32.840Z,24.81
2022-08-06T12:48:11.559Z,24.81
2022-08-06T12:50:43.495Z,24.76
2022-08-06T12:53:12.484Z,24.73
2022-08-06T12:55:55.779Z,24.74
2022-08-06T12:58:41.448Z,24.72
2022-08-06T13:01:12.218Z,24.71
2022-08-06T13:03:49.275Z,24.70
2022-08-06T13:06:32.542Z,24.69
2022-08-06T13:09:07.831Z,24.64
2022-08-06T13:11:37.141Z,24.63
2022-08-06T13:14:18.210Z,24.66
2022-08-06T13:16:54.841Z,24.64
2022-08-06T13:19:33.041Z,24.65
2022-08-06T13:22:07.293Z,24.67
2022-08-06T13:24:34.372Z,24.72
2022-08-06T13:27:02.734Z,24.73
2022-08-06T13:30:30.713Z,24.74
2022-08-06T13:32:27.161Z,24.76
2022-08-06T13:35:03.628Z,24.74
2022-08-06T13:37:57.945Z,24.79
2022-08-06T13:40:47.183Z,24.79
2022-08-06T13:43:38.362Z,24.81
2022-08-06T13:46:17.054Z,24.83
2022-08-06T13:48:52.630Z,24.85
2022-08-06T13:51:27.836Z,24.80
2022-08-06T13:53:57.328Z,24.84
2022-08-06T13:56:28.658Z,24.85
2022-08-06T13:58:58.867Z,24.85
2022-08-06T14:01:34.870Z,24.86
2022-08-06T14:04:11.000Z,24.88
2022-08-06T14:06:41.426Z,24.89
2022-08-06T14:09:19.866Z,24.93
2022-08-06T14:11:55.866Z,24.92
2022-08-06T14:14:27.437Z,24.93
2022-08-06T14:16:58.830Z,24.98
2022-08-06T14:22:19.313Z,25.03
2022-08-06T14:24:53.856Z,25.04
2022-08-06T14:30:29.205Z,25.06
2022-08-06T14:33:18.894Z,25.04
2022-08-06T14:35:51.026Z,25.06
2022-08-06T14:38:18.771Z,25.03
2022-08-06T14:41:04.281Z,25.02
2022-08-06T14:43:56.343Z,25.04
2022-08-06T14:49:19.091Z,25.08
2022-08-06T14:52:20.255Z,25.12
2022-08-06T14:54:33.421Z,25.14
2022-08-06T14:57:02.387Z,25.16
2022-08-06T14:59:32.286Z,25.17
2022-08-06T15:02:09.836Z,25.25
2022-08-06T15:04:36.456Z,25.27
2022-08-06T15:07:04.802Z,25.25
2022-08-06T15:10:05.905Z,25.30
2022-08-06T15:12:34.471Z,25.29
2022-08-06T15:15:13.491Z,25.24
2022-08-06T15:18:05.776Z,25.28
2022-08-06T15:20:28.027Z,25.28
2022-08-06T15:22:55.932Z,25.30
2022-08-06T15:25:59.889Z,25.30
2022-08-06T15:28:10.424Z,25.30
2022-08-06T15:30:39.085Z,25.32
2022-08-06T15:33:11.291Z,25.33
2022-08-06T15:35:53.155Z,25.36
2022-08-06T15:38:24.580Z,25.36
2022-08-06T15:40:51.257Z,25.40
2022-08-06T15:43:20.222Z,25.42
2022-08-06T15:45:55.094Z,25.45
2022-08-06T15:48:29.211Z,25.38
2022-08-06T15:51:30.118Z,25.48
2022-08-06T15:53:56.671Z,25.49
2022-08-06T15:56:38.839Z,25.52
2022-08-06T15:59:13.152Z,25.52
2022-08-06T16:02:01.796Z,25.47
2022-08-06T16:04:32.195Z,25.48
2022-08-06T16:07:03.267Z,25.48
2022-08-06T16:09:30.599Z,25.46
2022-08-06T16:12:17.227Z,25.48
2022-08-06T16:14:46.813Z,25.51
2022-08-06T16:18:05.270Z,25.50
2022-08-06T16:20:09.528Z,25.50
2022-08-06T16:22:37.695Z,25.48
2022-08-06T16:25:05.561Z,25.46
2022-08-06T16:27:40.221Z,25.44
2022-08-06T16:30:07.413Z,25.44
2022-08-06T16:32:35.937Z,25.44
2022-08-06T16:35:02.544Z,25.49
2022-08-06T16:37:39.738Z,25.50
2022-08-06T16:40:09.176Z,25.54
2022-08-06T16:42:36.291Z,25.57
2022-08-06T16:45:09.971Z,25.54
2022-08-06T16:48:04.225Z,25.61
2022-08-06T16:50:40.782Z,25.61
2022-08-06T16:54:13.119Z,25.61
2022-08-06T16:55:55.826Z,25.61
2022-08-06T16:58:34.508Z,25.61
2022-08-06T17:02:20.255Z,25.63
2022-08-06T17:03:59.826Z,25.63
2022-08-06T17:06:29.676Z,25.63
2022-08-06T17:08:57.691Z,25.63
2022-08-06T17:11:51.871Z,25.67
2022-08-06T17:14:13.557Z,25.64
2022-08-06T17:16:41.032Z,25.65
2022-08-06T17:21:59.404Z,25.55
2022-08-06T17:24:37.054Z,25.60
2022-08-06T17:27:10.308Z,25.57
2022-08-06T17:29:45.534Z,25.54
2022-08-06T17:35:09.009Z,25.55
2022-08-06T17:37:44.372Z,25.55
2022-08-06T17:43:12.632Z,25.49
2022-08-06T17:45:52.700Z,25.50
2022-08-06T17:48:31.003Z,25.46
2022-08-06T17:50:58.037Z,25.41
2022-08-06T17:53:52.195Z,25.44
2022-08-06T17:56:12.863Z,25.44
2022-08-06T17:59:17.948Z,25.43
2022-08-06T18:01:50.368Z,25.38
2022-08-06T18:04:30.093Z,25.41
2022-08-06T18:07:01.266Z,25.40
2022-08-06T18:10:09.820Z,25.37
2022-08-06T18:12:27.952Z,25.37
2022-08-06T18:14:55.110Z,25.36
2022-08-06T18:17:22.189Z,25.34
2022-08-06T18:20:09.535Z,25.35
2022-08-06T18:22:37.909Z,25.32
2022-08-06T18:25:14.852Z,25.34
2022-08-06T18:27:55.581Z,25.34
2022-08-06T18:30:36.673Z,25.33
2022-08-06T18:33:12.812Z,25.31
2022-08-06T18:35:55.074Z,25.26
2022-08-06T18:38:31.366Z,25.23
2022-08-06T18:41:14.656Z,25.28
2022-08-06T18:43:54.829Z,25.26
2022-08-06T18:46:55.727Z,25.26
2022-08-06T18:49:15.743Z,25.24
2022-08-06T18:51:45.802Z,25.22
2022-08-06T18:54:21.079Z,25.21
2022-08-06T18:56:49.697Z,25.20
2022-08-06T18:59:23.263Z,25.16
2022-08-06T19:01:56.699Z,25.16
2022-08-06T19:04:28.392Z,25.10
2022-08-06T19:07:00.383Z,25.14
2022-08-06T19:09:33.967Z,25.12
2022-08-06T19:12:13.693Z,25.13
2022-08-06T19:14:49.221Z,25.08
2022-08-06T19:17:48.419Z,25.07
2022-08-06T19:20:19.237Z,25.05
2022-08-06T19:22:53.873Z,25.08
2022-08-06T19:25:52.075Z,25.04
2022-08-06T19:28:35.690Z,25.02
2022-08-06T19:31:04.368Z,25.01
2022-08-06T19:33:32.146Z,25.00
2022-08-06T19:36:03.464Z,25.01
2022-08-06T19:38:38.788Z,25.01
2022-08-06T19:41:06.876Z,24.98
2022-08-06T19:44:27.239Z,24.88
2022-08-06T19:46:31.877Z,24.78
2022-08-06T19:49:03.463Z,24.76
2022-08-06T19:52:01.821Z,24.71
2022-08-06T19:54:26.234Z,24.69
2022-08-06T19:57:08.361Z,24.75
2022-08-06T20:00:55.977Z,24.78
2022-08-06T20:02:26.449Z,24.81
2022-08-06T20:04:56.399Z,24.80
2022-08-06T20:07:25.766Z,24.82
2022-08-06T20:10:01.242Z,24.86
2022-08-06T20:12:33.991Z,24.85
2022-08-06T20:15:13.198Z,24.82
2022-08-06T20:17:45.955Z,24.87
2022-08-06T20:20:19.367Z,24.85
2022-08-06T20:22:56.636Z,24.86
2022-08-06T20:25:23.993Z,24.83
2022-08-06T20:29:07.651Z,24.86
2022-08-06T20:30:44.566Z,24.87
2022-08-06T20:33:23.708Z,24.88
2022-08-06T20:35:57.872Z,24.86
2022-08-06T20:38:40.655Z,24.82
2022-08-06T20:41:57.201Z,24.89
2022-08-06T20:44:04.630Z,24.86
2022-08-06T20:47:01.153Z,24.86
2022-08-06T20:49:20.957Z,24.72
2022-08-06T20:51:56.629Z,24.83
2022-08-06T20:54:26.336Z,24.82
2022-08-06T20:56:59.495Z,24.82
2022-08-06T20:59:33.916Z,24.82
2022-08-06T21:02:04.565Z,24.82
2022-08-06T21:05:16.036Z,24.80
2022-08-06T21:07:28.030Z,24.82
2022-08-06T21:10:09.545Z,24.82
2022-08-06T21:12:45.074Z,24.79
2022-08-06T21:15:42.012Z,24.77
2022-08-06T21:18:11.998Z,24.78
2022-08-06T21:20:41.325Z,24.78
2022-08-06T21:23:14.714Z,24.77
2022-08-06T21:25:43.253Z,24.76
2022-08-06T21:28:13.244Z,24.71
2022-08-06T21:30:41.007Z,24.76
2022-08-06T21:33:07.609Z,24.76
2022-08-06T21:35:35.135Z,24.74
2022-08-06T21:38:02.157Z,24.73
2022-08-06T21:40:33.034Z,24.72
2022-08-06T21:43:00.886Z,24.73
2022-08-06T21:45:58.798Z,24.71
2022-08-06T21:48:16.545Z,24.70
2022-08-06T21:50:56.614Z,24.67
2022-08-06T21:53:48.739Z,24.68
2022-08-06T21:56:37.814Z,24.65
2022-08-06T21:59:00.303Z,24.65
2022-08-06T22:02:18.380Z,24.63
2022-08-06T22:04:38.492Z,24.63
2022-08-06T22:07:01.290Z,24.61
2022-08-06T22:09:35.213Z,24.61
2022-08-06T22:12:37.671Z,24.56
2022-08-06T22:14:55.663Z,24.59
2022-08-06T22:17:34.837Z,24.58
2022-08-06T22:20:21.292Z,24.53
2022-08-06T22:22:50.490Z,24.54
2022-08-06T22:25:19.350Z,24.52
2022-08-06T22:27:54.166Z,24.50
2022-08-06T22:30:33.923Z,24.48
2022-08-06T22:33:02.211Z,24.48
2022-08-06T22:35:38.696Z,24.47
2022-08-06T22:38:19.372Z,24.45
2022-08-06T22:40:49.831Z,24.44
2022-08-06T22:43:23.837Z,24.36
2022-08-06T22:46:02.216Z,24.22
2022-08-06T22:48:35.493Z,24.05
2022-08-06T22:51:06.123Z,23.98
2022-08-06T22:54:29.893Z,23.86
2022-08-06T22:56:28.183Z,23.80
2022-08-06T22:59:06.102Z,23.86
2022-08-06T23:02:08.055Z,23.86
2022-08-06T23:04:31.021Z,23.93
2022-08-06T23:06:57.759Z,23.95
2022-08-06T23:09:24.284Z,23.98
2022-08-06T23:11:59.739Z,24.01
2022-08-06T23:14:32.107Z,24.01
2022-08-06T23:17:00.325Z,24.00
2022-08-06T23:19:29.938Z,24.02
2022-08-06T23:22:02.312Z,24.00
2022-08-06T23:24:32.864Z,24.01
2022-08-06T23:27:00.581Z,24.01
2022-08-06T23:29:27.112Z,24.01
2022-08-06T23:31:53.707Z,23.98
2022-08-06T23:34:35.838Z,23.98
2022-08-06T23:37:10.434Z,23.92
2022-08-06T23:39:38.960Z,23.94
2022-08-06T23:42:14.349Z,23.93
2022-08-06T23:44:48.942Z,23.93
2022-08-06T23:48:02.812Z,23.92
2022-08-06T23:50:05.513Z,23.88
2022-08-06T23:52:33.006Z,23.89
2022-08-06T23:54:59.953Z,23.88
2022-08-06T23:57:54.476Z,23.84
